»·PEaware :: SWA1823 KSAN-KLAS

SWA1823 :: KSAN-KLAS

FLIGHT INFORMATION

Flight Status: Arrived
Operator:
Southwest Airlines
More flights by this operator :: More flights under this callsign
Pilot: Justin Z. (25672)
Aircraft: BOEING 737-800
(B738)
More flights by this aircraft type
Origin: KSAN San Diego Intl-Lindbergh
United States
Destination: KLAS McCarran Intl
United States
More flights between these airports :: More routes between these airports
Route: +PADRZ2 CHKNN SEBBY YELAH MISEN KEPEC6
File this flight plan on PilotEdge
Remarks:
Altitude:
(Current/Filed)
30,000ft
Speed:
(Current/Filed)
450kts
Departed: 25-Mar-20 12:19 PM
Arrived: 25-Mar-20 01:13 PM
Distance/Time
Traveled:
225nm/0:54
Distance/Time
To Go:
Arrived

Flight Plot

Page will automatically refresh every two minutes.

Flight plan parsing failed; only flown route is shown


Map Options




Map Legend


Flown Route
Filed Route
Departure Airport
Arrival Airport
Navaid (VOR, NDB)
Fix

Horizontal Profiles

Position Reports

Time Latitude Longitude Heading Altitude Ground
Speed
25-Mar-20 11:19 32.733215 -117.196882 134 21ft 0kts
25-Mar-20 11:20 32.733216 -117.196882 134 21ft 0kts
25-Mar-20 11:21 32.733216 -117.196882 134 21ft 0kts
25-Mar-20 11:22 32.733216 -117.196882 134 21ft 0kts
25-Mar-20 11:23 32.733216 -117.196882 134 21ft 0kts
25-Mar-20 11:24 32.733216 -117.196882 134 21ft 0kts
25-Mar-20 11:25 32.733216 -117.196882 134 21ft 0kts
25-Mar-20 11:26 32.733216 -117.196882 134 21ft 0kts
25-Mar-20 11:27 32.733216 -117.196882 134 21ft 0kts
25-Mar-20 11:28 32.733216 -117.196882 134 21ft 0kts
25-Mar-20 11:29 32.733216 -117.196882 134 21ft 0kts
25-Mar-20 11:30 32.733216 -117.196882 134 21ft 0kts
25-Mar-20 11:31 32.733216 -117.196882 134 21ft 0kts
25-Mar-20 11:31 32.733216 -117.196882 134 21ft 0kts
25-Mar-20 11:33 32.733216 -117.196882 134 21ft 0kts
25-Mar-20 11:33 32.733216 -117.196882 134 21ft 0kts
25-Mar-20 11:35 32.733216 -117.196882 134 21ft 0kts
25-Mar-20 11:35 32.733216 -117.196882 134 21ft 0kts
25-Mar-20 11:36 32.733216 -117.196882 134 21ft 0kts
25-Mar-20 11:37 32.733216 -117.196882 134 21ft 0kts
25-Mar-20 11:38 32.733216 -117.196882 134 21ft 0kts
25-Mar-20 11:39 32.733216 -117.196882 134 21ft 0kts
25-Mar-20 11:40 32.733216 -117.196882 134 21ft 0kts
25-Mar-20 11:41 32.733216 -117.196882 134 21ft 0kts
25-Mar-20 11:42 32.733216 -117.196882 134 21ft 0kts
25-Mar-20 11:43 32.733216 -117.196882 134 21ft 0kts
25-Mar-20 11:44 32.733216 -117.196882 134 21ft 0kts
25-Mar-20 11:45 32.733216 -117.196882 134 21ft 0kts
25-Mar-20 11:46 32.733216 -117.196882 134 21ft 0kts
25-Mar-20 11:47 32.733216 -117.196882 134 21ft 0kts
25-Mar-20 11:48 32.733216 -117.196882 134 21ft 0kts
25-Mar-20 11:49 32.733216 -117.196882 134 21ft 0kts
25-Mar-20 11:50 32.733216 -117.196882 134 21ft 0kts
25-Mar-20 11:51 32.733223 -117.196888 122 21ft 0kts
25-Mar-20 11:52 32.733252 -117.196894 61 21ft 0kts
25-Mar-20 11:53 32.733288 -117.196815 61 20ft 0kts
25-Mar-20 11:54 32.733321 -117.196744 61 20ft 0kts
25-Mar-20 11:55 32.733348 -117.196683 61 20ft 0kts
25-Mar-20 11:56 32.733366 -117.196645 61 20ft 0kts
25-Mar-20 11:57 32.733368 -117.196640 61 20ft 0kts
25-Mar-20 11:58 32.733368 -117.196640 61 20ft 0kts
25-Mar-20 11:59 32.733368 -117.196640 61 20ft 0kts
25-Mar-20 12:00 32.733368 -117.196640 61 20ft 0kts
25-Mar-20 12:01 32.733368 -117.196640 61 20ft 0kts
25-Mar-20 12:02 32.733368 -117.196640 61 20ft 0kts
25-Mar-20 12:03 32.733368 -117.196640 61 20ft 0kts
25-Mar-20 12:04 32.733368 -117.196640 61 20ft 0kts
25-Mar-20 12:05 32.733368 -117.196640 61 20ft 0kts
25-Mar-20 12:06 32.733368 -117.196640 61 20ft 0kts
25-Mar-20 12:07 32.733368 -117.196640 61 20ft 0kts
25-Mar-20 12:08 32.733368 -117.196640 61 20ft 0kts
25-Mar-20 12:09 32.733368 -117.196640 61 20ft 0kts
25-Mar-20 12:10 32.733368 -117.196640 61 20ft 0kts
25-Mar-20 12:11 32.733368 -117.196640 61 20ft 0kts
25-Mar-20 12:12 32.733368 -117.196640 61 20ft 0kts
25-Mar-20 12:13 32.733368 -117.196640 61 20ft 0kts
25-Mar-20 12:14 32.732777 -117.190725 106 23ft 37kts
25-Mar-20 12:15 32.729717 -117.178084 106 24ft 26kts
25-Mar-20 12:16 32.729506 -117.176817 77 25ft 0kts
25-Mar-20 12:17 32.730247 -117.176049 293 27ft 8kts
25-Mar-20 12:18 32.740247 -117.213451 293 1649ft 158kts
25-Mar-20 12:19 32.770679 -117.267621 299 3237ft 236kts
25-Mar-20 12:20 32.809924 -117.335080 304 6306ft 256kts
25-Mar-20 12:21 32.854070 -117.402771 302 9204ft 264kts
25-Mar-20 12:22 32.901687 -117.476895 302 10727ft 314kts
25-Mar-20 12:23 32.957249 -117.563234 301 12763ft 336kts
25-Mar-20 12:24 33.015070 -117.653436 300 15097ft 347kts
25-Mar-20 12:25 33.077768 -117.743254 308 17343ft 366kts
25-Mar-20 12:26 33.155384 -117.822768 309 19271ft 379kts
25-Mar-20 12:27 33.236230 -117.903536 310 21043ft 389kts
25-Mar-20 12:28 33.321319 -117.986326 309 22617ft 398kts
25-Mar-20 12:29 33.407260 -118.070266 309 23165ft 404kts
25-Mar-20 12:30 33.496144 -118.153546 320 24602ft 427kts
25-Mar-20 12:31 33.621850 -118.160566 11 25743ft 507kts
25-Mar-20 12:32 33.723139 -118.085624 36 26549ft 536kts
25-Mar-20 12:33 33.812752 -117.985983 42 27287ft 547kts
25-Mar-20 12:34 33.920650 -117.853289 44 28185ft 558kts
25-Mar-20 12:35 34.017798 -117.729814 44 28931ft 567kts
25-Mar-20 12:36 34.129736 -117.585685 44 29154ft 567kts
25-Mar-20 12:37 34.238139 -117.445424 45 29159ft 568kts
25-Mar-20 12:38 34.364983 -117.281112 45 29123ft 567kts
25-Mar-20 12:39 34.473074 -117.140923 45 29130ft 568kts
25-Mar-20 12:40 34.580258 -117.001565 45 29094ft 562kts
25-Mar-20 12:41 34.686289 -116.863501 45 29087ft 556kts
25-Mar-20 12:42 34.792173 -116.725451 45 29091ft 556kts
25-Mar-20 12:43 34.905359 -116.597763 36 29106ft 555kts
25-Mar-20 12:44 35.027116 -116.477629 34 28012ft 559kts
25-Mar-20 12:45 35.141486 -116.352739 43 25547ft 560kts
25-Mar-20 12:46 35.249897 -116.218747 44 22477ft 548kts
25-Mar-20 12:47 35.350831 -116.092264 44 20864ft 475kts
25-Mar-20 12:48 35.439176 -115.980913 44 18050ft 440kts
25-Mar-20 12:49 35.521886 -115.876127 45 15692ft 416kts
25-Mar-20 12:50 35.600654 -115.776055 45 13828ft 397kts
25-Mar-20 12:51 35.671840 -115.685265 45 13167ft 352kts
25-Mar-20 12:52 35.740495 -115.604016 29 13053ft 343kts
25-Mar-20 12:53 35.829296 -115.571763 357 13052ft 330kts
25-Mar-20 12:54 35.915726 -115.566521 355 13034ft 280kts
25-Mar-20 12:55 35.984672 -115.518266 62 12569ft 343kts
25-Mar-20 12:56 36.019969 -115.410689 72 11355ft 331kts
25-Mar-20 12:57 36.025953 -115.304508 99 10190ft 293kts
25-Mar-20 12:58 36.022250 -115.204173 95 9022ft 281kts
25-Mar-20 12:59 36.021810 -115.112738 95 7271ft 251kts
25-Mar-20 13:00 36.021036 -115.028904 95 5565ft 236kts
25-Mar-20 13:01 36.019288 -114.946012 95 5518ft 242kts
25-Mar-20 13:02 36.016973 -114.862470 95 5519ft 242kts
25-Mar-20 13:03 36.014503 -114.779160 94 5512ft 234kts
25-Mar-20 13:04 36.053824 -114.756125 293 5049ft 178kts
25-Mar-20 13:05 36.069165 -114.813871 281 5018ft 176kts
25-Mar-20 13:06 36.081873 -114.875984 261 5012ft 183kts
25-Mar-20 13:07 36.073857 -114.937484 262 5016ft 183kts
25-Mar-20 13:08 36.073597 -114.999127 263 4115ft 176kts
25-Mar-20 13:09 36.073655 -115.054162 263 3213ft 148kts
25-Mar-20 13:10 36.073587 -115.103192 261 2458ft 138kts
25-Mar-20 13:11 36.073552 -115.148473 269 2117ft 93kts
25-Mar-20 13:12 36.074385 -115.161239 348 2166ft 0kts
25-Mar-20 13:13 36.074526 -115.161270 352 2165ft 11kts
25-Mar-20 13:14 36.077586 -115.161264 1 2157ft 0kts
25-Mar-20 13:15 36.078036 -115.152456 93 2124ft 40kts
25-Mar-20 13:17 36.079623 -115.146165 336 2097ft 0kts
25-Mar-20 13:18 36.079649 -115.146180 335 2097ft 0kts
25-Mar-20 13:19 36.079649 -115.146180 335 2097ft 0kts
25-Mar-20 13:20 36.079649 -115.146180 335 2097ft 0kts
25-Mar-20 13:21 36.079649 -115.146180 335 2097ft 0kts
25-Mar-20 13:22 36.079649 -115.146180 335 2097ft 0kts

Navigation Log

Ident Type
Flight plan parsing failed, navigation log unavailable